createdAt,value
2023-02-11T00:00:20.052Z,97810.50
2023-02-11T00:02:48.018Z,97810.75
2023-02-11T00:05:15.156Z,97820.13
2023-02-11T00:07:41.593Z,97822.16
2023-02-11T00:10:08.769Z,97817.31
2023-02-11T00:12:36.374Z,97832.19
2023-02-11T00:15:03.620Z,97819.78
2023-02-11T00:17:30.042Z,97786.00
2023-02-11T00:19:56.520Z,97829.84
2023-02-11T00:22:23.018Z,97763.75
2023-02-11T00:24:49.457Z,97819.53
2023-02-11T00:27:15.863Z,97823.06
2023-02-11T00:29:42.332Z,97816.13
2023-02-11T00:32:10.335Z,97824.75
2023-02-11T00:34:38.088Z,97806.22
2023-02-11T00:37:05.271Z,97802.31
2023-02-11T00:39:32.131Z,97818.63
2023-02-11T00:41:58.613Z,97797.25
2023-02-11T00:44:26.010Z,97790.72
2023-02-11T00:46:52.420Z,97781.44
2023-02-11T00:49:18.945Z,97788.31
2023-02-11T00:51:45.368Z,97774.47
2023-02-11T00:54:12.293Z,97775.63
2023-02-11T00:56:39.029Z,97777.25
2023-02-11T00:59:05.527Z,97790.16
2023-02-11T01:01:32.043Z,97786.97
2023-02-11T01:03:58.518Z,97767.69
2023-02-11T01:06:24.982Z,97736.56
2023-02-11T01:08:51.558Z,97800.63
2023-02-11T01:11:20.118Z,97775.22
2023-02-11T01:13:48.153Z,97790.88
2023-02-11T01:16:15.643Z,97801.78
2023-02-11T01:18:44.199Z,97797.44
2023-02-11T01:21:11.370Z,97783.13
2023-02-11T01:23:37.846Z,97776.16
2023-02-11T01:26:04.568Z,97794.88
2023-02-11T01:28:31.734Z,97780.53
2023-02-11T01:31:03.145Z,97767.53
2023-02-11T01:33:29.808Z,97779.06
2023-02-11T01:36:00.439Z,97783.03
2023-02-11T01:38:28.330Z,97742.41
2023-02-11T01:41:00.580Z,97799.84
2023-02-11T01:43:34.212Z,97783.88
2023-02-11T01:46:12.902Z,97786.63
2023-02-11T01:48:43.537Z,97789.38
2023-02-11T01:51:18.425Z,97773.88
2023-02-11T01:54:06.155Z,97793.44
2023-02-11T01:56:56.103Z,97787.09
2023-02-11T01:59:26.943Z,97787.38
2023-02-11T02:01:59.092Z,97784.94
2023-02-11T02:04:31.775Z,97771.13
2023-02-11T02:07:05.731Z,97782.28
2023-02-11T02:09:40.085Z,97746.56
2023-02-11T02:12:06.698Z,97773.28
2023-02-11T02:14:33.555Z,97765.16
2023-02-11T02:17:00.063Z,97778.72
2023-02-11T02:19:50.704Z,97780.06
2023-02-11T02:22:36.032Z,97780.34
2023-02-11T02:25:13.589Z,97758.56
2023-02-11T02:27:53.937Z,97750.03
2023-02-11T02:30:27.439Z,97742.94
2023-02-11T02:33:22.399Z,97748.88
2023-02-11T02:35:52.298Z,97738.78
2023-02-11T02:38:25.206Z,97718.91
2023-02-11T02:41:03.859Z,97732.84
2023-02-11T02:43:31.211Z,97728.84
2023-02-11T02:46:11.293Z,97742.84
2023-02-11T02:48:37.782Z,97742.66
2023-02-11T02:51:23.014Z,97728.00
2023-02-11T02:53:55.453Z,97726.50
2023-02-11T02:56:28.426Z,97717.81
2023-02-11T02:59:12.998Z,97718.09
2023-02-11T03:01:56.149Z,97706.59
2023-02-11T03:04:30.998Z,97689.19
2023-02-11T03:07:00.353Z,97692.81
2023-02-11T03:09:37.788Z,97668.19
2023-02-11T03:12:06.915Z,97675.22
2023-02-11T03:14:35.820Z,97671.66
2023-02-11T03:17:06.013Z,97685.03
2023-02-11T03:19:41.083Z,97684.44
2023-02-11T03:22:17.220Z,97670.81
2023-02-11T03:24:44.904Z,97677.72
2023-02-11T03:27:43.702Z,97691.81
2023-02-11T03:30:18.985Z,97687.47
2023-02-11T03:32:57.326Z,97696.78
2023-02-11T03:35:43.962Z,97664.41
2023-02-11T03:38:33.739Z,97655.00
2023-02-11T03:41:03.138Z,97679.22
2023-02-11T03:43:44.057Z,97687.53
2023-02-11T03:46:12.386Z,97667.72
2023-02-11T03:48:46.937Z,97701.72
2023-02-11T03:51:14.958Z,97679.31
2023-02-11T03:53:44.846Z,97685.75
2023-02-11T03:56:17.863Z,97689.56
2023-02-11T03:58:45.827Z,97697.72
2023-02-11T04:01:12.565Z,97685.97
2023-02-11T04:03:39.068Z,97686.47
2023-02-11T04:06:05.927Z,97662.31
2023-02-11T04:08:32.877Z,97675.69
2023-02-11T04:10:59.312Z,97696.31
2023-02-11T04:13:26.113Z,97712.00
2023-02-11T04:15:52.878Z,97705.88
2023-02-11T04:18:19.560Z,97688.91
2023-02-11T04:20:45.958Z,97697.16
2023-02-11T04:23:12.469Z,97680.72
2023-02-11T04:25:38.923Z,97653.56
2023-02-11T04:28:05.490Z,97682.72
2023-02-11T04:30:31.932Z,97669.97
2023-02-11T04:32:59.024Z,97718.94
2023-02-11T04:35:25.474Z,97685.09
2023-02-11T04:37:51.944Z,97687.88
2023-02-11T04:40:18.553Z,97694.19
2023-02-11T04:42:45.008Z,97683.09
2023-02-11T04:45:11.428Z,97710.44
2023-02-11T04:47:38.034Z,97753.03
2023-02-11T04:50:05.151Z,97756.34
2023-02-11T04:52:31.575Z,97722.97
2023-02-11T04:54:57.982Z,97748.34
2023-02-11T04:57:24.523Z,97751.47
2023-02-11T04:59:50.932Z,97768.16
2023-02-11T05:02:17.456Z,97736.28
2023-02-11T05:04:43.856Z,97728.25
2023-02-11T05:07:10.271Z,97732.38
2023-02-11T05:09:36.845Z,97747.53
2023-02-11T05:12:03.431Z,97731.75
2023-02-11T05:14:29.858Z,97742.47
2023-02-11T05:16:56.363Z,97727.56
2023-02-11T05:19:22.819Z,97730.72
2023-02-11T05:22:01.686Z,97702.69
2023-02-11T05:24:28.396Z,97714.66
2023-02-11T05:26:54.792Z,97701.75
2023-02-11T05:29:21.202Z,97711.19
2023-02-11T05:31:47.623Z,97709.03
2023-02-11T05:34:14.111Z,97721.38
2023-02-11T05:36:40.951Z,97719.03
2023-02-11T05:39:07.383Z,97712.94
2023-02-11T05:41:33.795Z,97705.94
2023-02-11T05:44:00.207Z,97706.09
2023-02-11T05:46:26.815Z,97699.81
2023-02-11T05:48:53.314Z,97699.44
2023-02-11T05:51:19.748Z,97701.19
2023-02-11T05:53:46.176Z,97692.66
2023-02-11T05:56:14.477Z,97696.88
2023-02-11T05:58:41.080Z,97681.66
2023-02-11T06:01:07.498Z,97680.59
2023-02-11T06:03:34.040Z,97687.91
2023-02-11T06:06:00.626Z,97673.25
2023-02-11T06:08:27.185Z,97653.84
2023-02-11T06:10:53.599Z,97647.31
2023-02-11T06:13:20.075Z,97645.84
2023-02-11T06:15:56.380Z,97705.50
2023-02-11T06:18:22.890Z,97682.97
2023-02-11T06:20:49.315Z,97676.81
2023-02-11T06:23:15.771Z,97663.56
2023-02-11T06:25:42.179Z,97645.22
2023-02-11T06:28:10.347Z,97672.13
2023-02-11T06:30:38.063Z,97680.38
2023-02-11T06:33:04.992Z,97710.53
2023-02-11T06:35:33.362Z,97721.09
2023-02-11T06:37:59.790Z,97697.63
2023-02-11T06:40:26.250Z,97702.81
2023-02-11T06:42:53.026Z,97654.66
2023-02-11T06:45:20.542Z,97679.25
2023-02-11T06:47:47.050Z,97702.56
2023-02-11T06:50:14.566Z,97708.41
2023-02-11T06:52:41.107Z,97652.84
2023-02-11T06:55:07.732Z,97708.63
2023-02-11T06:57:34.168Z,97694.19
2023-02-11T07:00:00.694Z,97663.69
2023-02-11T07:02:27.134Z,97680.50
2023-02-11T07:04:53.713Z,97721.03
2023-02-11T07:07:20.156Z,97684.56
2023-02-11T07:09:46.577Z,97719.78
2023-02-11T07:12:15.940Z,97738.09
2023-02-11T07:14:42.774Z,97719.47
2023-02-11T07:17:09.348Z,97673.13
2023-02-11T07:19:35.810Z,97693.28
2023-02-11T07:22:02.216Z,97711.72
2023-02-11T07:24:28.990Z,97691.03
2023-02-11T07:26:55.480Z,97705.78
2023-02-11T07:29:21.932Z,97672.88
2023-02-11T07:31:48.975Z,97644.34
2023-02-11T07:34:15.538Z,97684.66
2023-02-11T07:36:44.006Z,97635.38
2023-02-11T07:39:10.812Z,97703.59
2023-02-11T07:41:38.374Z,97702.78
2023-02-11T07:44:05.626Z,97664.72
2023-02-11T07:46:32.389Z,97704.75
2023-02-11T07:48:58.876Z,97670.41
2023-02-11T07:51:29.113Z,97703.78
2023-02-11T07:53:58.750Z,97702.97
2023-02-11T07:56:25.632Z,97702.19
2023-02-11T07:58:52.163Z,97679.84
2023-02-11T08:01:25.371Z,97686.47
2023-02-11T08:03:52.096Z,97672.81
2023-02-11T08:06:20.443Z,97679.78
2023-02-11T08:08:47.647Z,97659.38
2023-02-11T08:11:23.466Z,97650.16
2023-02-11T08:13:51.260Z,97684.97
2023-02-11T08:16:29.831Z,97694.00
2023-02-11T08:18:58.687Z,97653.50
2023-02-11T08:21:25.947Z,97684.22
2023-02-11T08:23:53.192Z,97676.97
2023-02-11T08:26:22.191Z,97620.16
2023-02-11T08:28:50.287Z,97666.56
2023-02-11T08:31:22.693Z,97619.53
2023-02-11T08:33:49.311Z,97680.34
2023-02-11T08:36:19.114Z,97662.38
2023-02-11T08:38:45.659Z,97697.19
2023-02-11T08:41:14.901Z,97698.97
2023-02-11T08:43:42.776Z,97699.97
2023-02-11T08:46:13.289Z,97689.28
2023-02-11T08:48:40.007Z,97698.69
2023-02-11T08:51:13.443Z,97701.81
2023-02-11T08:53:40.188Z,97673.13
2023-02-11T08:56:06.833Z,97678.31
2023-02-11T08:58:33.593Z,97693.34
2023-02-11T09:01:00.225Z,97653.78
2023-02-11T09:03:26.865Z,97647.03
2023-02-11T09:05:53.419Z,97653.13
2023-02-11T09:08:20.894Z,97670.81
2023-02-11T09:10:47.678Z,97691.44
2023-02-11T09:13:16.316Z,97683.28
2023-02-11T09:15:46.750Z,97663.13
2023-02-11T09:18:13.404Z,97677.22
2023-02-11T09:20:39.931Z,97661.91
2023-02-11T09:23:06.349Z,97661.19
2023-02-11T09:25:32.819Z,97670.59
2023-02-11T09:27:59.236Z,97665.22
2023-02-11T09:30:25.754Z,97680.69
2023-02-11T09:32:52.189Z,97664.34
2023-02-11T09:35:18.654Z,97651.38
2023-02-11T09:37:45.086Z,97652.88
2023-02-11T09:40:12.955Z,97676.28
2023-02-11T09:42:52.979Z,97696.22
2023-02-11T09:45:23.726Z,97690.75
2023-02-11T09:47:55.479Z,97690.94
2023-02-11T09:50:38.936Z,97693.41
2023-02-11T09:53:27.547Z,97677.09
2023-02-11T09:55:56.422Z,97678.69
2023-02-11T09:58:33.287Z,97650.53
2023-02-11T10:01:27.744Z,97671.28
2023-02-11T10:04:38.747Z,97654.06
2023-02-11T10:07:43.060Z,97651.88
2023-02-11T10:10:43.986Z,97643.78
2023-02-11T10:13:23.047Z,97635.00
2023-02-11T10:16:16.458Z,97633.53
2023-02-11T10:19:05.229Z,97646.50
2023-02-11T10:21:46.665Z,97661.72
2023-02-11T10:24:15.673Z,97668.53
2023-02-11T10:26:43.941Z,97654.44
2023-02-11T10:29:50.462Z,97677.28
2023-02-11T10:32:55.300Z,97654.72
2023-02-11T10:35:23.454Z,97645.28
2023-02-11T10:37:50.748Z,97639.19
2023-02-11T10:40:21.299Z,97657.50
2023-02-11T10:42:54.276Z,97653.00
2023-02-11T10:45:27.504Z,97649.63
2023-02-11T10:47:55.265Z,97616.72
2023-02-11T10:50:33.340Z,97646.81
2023-02-11T10:53:11.461Z,97655.16
2023-02-11T10:55:37.996Z,97642.56
2023-02-11T10:58:05.667Z,97612.78
2023-02-11T11:00:42.919Z,97634.38
2023-02-11T11:03:20.959Z,97619.88
2023-02-11T11:05:57.232Z,97626.38
2023-02-11T11:08:46.180Z,97621.13
2023-02-11T11:11:24.068Z,97640.19
2023-02-11T11:13:53.515Z,97631.94
2023-02-11T11:16:26.187Z,97621.13
2023-02-11T11:19:15.864Z,97622.06
2023-02-11T11:21:50.426Z,97625.91
2023-02-11T11:24:33.469Z,97621.47
2023-02-11T11:27:03.092Z,97605.97
2023-02-11T11:29:39.398Z,97617.06
2023-02-11T11:32:20.874Z,97589.75
2023-02-11T11:34:55.580Z,97607.81
2023-02-11T11:37:33.037Z,97600.19
2023-02-11T11:40:11.031Z,97604.25
2023-02-11T11:42:39.788Z,97605.63
2023-02-11T11:45:27.012Z,97598.97
2023-02-11T11:48:15.276Z,97607.47
2023-02-11T11:50:50.112Z,97612.28
2023-02-11T11:53:31.246Z,97619.13
2023-02-11T11:56:18.503Z,97612.09
2023-02-11T11:58:45.099Z,97605.88
2023-02-11T12:01:47.837Z,97611.88
2023-02-11T12:04:49.820Z,97610.88
2023-02-11T12:07:45.695Z,97600.22
2023-02-11T12:10:18.384Z,97598.63
2023-02-11T12:12:54.023Z,97599.41
2023-02-11T12:15:31.204Z,97582.34
2023-02-11T12:18:15.580Z,97577.88
2023-02-11T12:21:00.399Z,97595.59
2023-02-11T12:23:54.544Z,97600.63
2023-02-11T12:26:24.286Z,97588.56
2023-02-11T12:29:53.236Z,97593.56
2023-02-11T12:32:32.062Z,97596.56
2023-02-11T12:35:26.695Z,97588.72
2023-02-11T12:38:05.247Z,97582.69
2023-02-11T12:40:53.224Z,97564.19
2023-02-11T12:43:24.472Z,97565.19
2023-02-11T12:46:16.006Z,97565.59
2023-02-11T12:49:00.591Z,97570.41
2023-02-11T12:51:57.956Z,97571.78
2023-02-11T12:54:31.859Z,97564.38
2023-02-11T12:57:07.393Z,97559.50
2023-02-11T12:59:56.430Z,97558.75
2023-02-11T13:02:44.460Z,97539.25
2023-02-11T13:05:28.292Z,97556.56
2023-02-11T13:08:04.389Z,97541.66
2023-02-11T13:10:37.314Z,97538.44
2023-02-11T13:13:22.137Z,97552.53
2023-02-11T13:15:54.845Z,97515.94
2023-02-11T13:18:45.642Z,97538.22
2023-02-11T13:21:15.164Z,97535.84
2023-02-11T13:24:09.659Z,97520.72
2023-02-11T13:26:47.437Z,97515.25
2023-02-11T13:29:29.659Z,97512.25
2023-02-11T13:32:09.635Z,97516.25
2023-02-11T13:34:42.166Z,97510.03
2023-02-11T13:37:23.211Z,97506.34
2023-02-11T13:39:58.421Z,97523.09
2023-02-11T13:42:25.070Z,97513.19
2023-02-11T13:44:52.055Z,97515.81
2023-02-11T13:47:31.650Z,97499.19
2023-02-11T13:50:00.255Z,97512.88
2023-02-11T13:52:31.627Z,97527.78
2023-02-11T13:55:06.358Z,97534.31
2023-02-11T13:57:34.900Z,97524.31
2023-02-11T14:00:26.838Z,97532.31
2023-02-11T14:03:30.356Z,97527.75
2023-02-11T14:06:27.933Z,97532.97
2023-02-11T14:09:14.134Z,97535.09
2023-02-11T14:11:42.689Z,97539.13
2023-02-11T14:14:33.490Z,97523.41
2023-02-11T14:17:03.220Z,97530.13
2023-02-11T14:19:39.170Z,97525.31
2023-02-11T14:22:13.333Z,97522.22
2023-02-11T14:24:48.016Z,97520.31
2023-02-11T14:27:27.119Z,97523.69
2023-02-11T14:30:21.006Z,97533.84
2023-02-11T14:33:00.330Z,97517.84
2023-02-11T14:35:42.096Z,97533.59
2023-02-11T14:38:31.682Z,97539.97
2023-02-11T14:41:18.264Z,97517.91
2023-02-11T14:43:58.734Z,97518.56
2023-02-11T14:46:28.676Z,97518.19
2023-02-11T14:48:59.794Z,97501.59
2023-02-11T14:51:40.783Z,97527.16
2023-02-11T14:54:22.713Z,97531.19
2023-02-11T14:57:05.820Z,97530.06
2023-02-11T14:59:32.773Z,97532.53
2023-02-11T15:01:59.941Z,97551.22
2023-02-11T15:04:33.265Z,97552.63
2023-02-11T15:07:06.240Z,97531.16
2023-02-11T15:09:46.209Z,97532.16
2023-02-11T15:12:23.748Z,97537.59
2023-02-11T15:14:54.097Z,97545.25
2023-02-11T15:17:28.039Z,97534.94
2023-02-11T15:19:57.884Z,97534.28
2023-02-11T15:22:27.730Z,97541.56
2023-02-11T15:25:17.067Z,97531.31
2023-02-11T15:27:49.202Z,97529.34
2023-02-11T15:30:21.734Z,97546.25
2023-02-11T15:32:50.356Z,97550.69
2023-02-11T15:35:18.341Z,97527.56
2023-02-11T15:37:45.474Z,97541.06
2023-02-11T15:40:19.050Z,97540.66
2023-02-11T15:43:06.351Z,97530.63
2023-02-11T15:45:38.498Z,97564.81
2023-02-11T15:48:24.199Z,97546.50
2023-02-11T15:50:58.645Z,97569.63
2023-02-11T15:53:30.502Z,97562.00
2023-02-11T15:56:07.827Z,97524.56
2023-02-11T15:58:43.644Z,97555.53
2023-02-11T16:01:10.949Z,97568.81
2023-02-11T16:03:37.477Z,97564.59
2023-02-11T16:06:17.308Z,97570.22
2023-02-11T16:08:56.355Z,97569.63
2023-02-11T16:11:31.017Z,97569.25
2023-02-11T16:14:01.292Z,97567.59
2023-02-11T16:16:33.960Z,97550.72
2023-02-11T16:19:06.419Z,97553.91
2023-02-11T16:21:38.966Z,97555.31
2023-02-11T16:24:07.391Z,97559.94
2023-02-11T16:26:39.140Z,97590.50
2023-02-11T16:29:10.234Z,97585.06
2023-02-11T16:31:41.110Z,97575.19
2023-02-11T16:34:22.305Z,97571.13
2023-02-11T16:36:50.036Z,97584.19
2023-02-11T16:39:17.841Z,97595.63
2023-02-11T16:41:44.394Z,97580.34
2023-02-11T16:44:11.020Z,97577.88
2023-02-11T16:46:37.851Z,97599.38
2023-02-11T16:49:10.349Z,97591.69
2023-02-11T16:51:41.609Z,97623.06
2023-02-11T16:54:14.788Z,97630.88
2023-02-11T16:56:41.566Z,97608.88
2023-02-11T16:59:08.132Z,97619.34
2023-02-11T17:01:35.753Z,97623.56
2023-02-11T17:04:02.297Z,97614.66
2023-02-11T17:06:28.753Z,97621.88
2023-02-11T17:08:55.188Z,97600.44
2023-02-11T17:11:21.592Z,97617.31
2023-02-11T17:13:48.092Z,97605.19
2023-02-11T17:16:23.391Z,97647.50
2023-02-11T17:18:49.887Z,97640.63
2023-02-11T17:21:16.800Z,97657.28
2023-02-11T17:23:43.456Z,97651.97
2023-02-11T17:26:09.844Z,97635.66
2023-02-11T17:28:36.372Z,97642.66
2023-02-11T17:31:07.320Z,97662.22
2023-02-11T17:33:36.138Z,97658.59
2023-02-11T17:36:09.880Z,97675.47
2023-02-11T17:38:37.221Z,97674.59
2023-02-11T17:41:04.855Z,97680.69
2023-02-11T17:43:31.601Z,97660.94
2023-02-11T17:45:58.120Z,97675.47
2023-02-11T17:48:25.031Z,97682.53
2023-02-11T17:50:51.558Z,97661.78
2023-02-11T17:53:17.974Z,97672.19
2023-02-11T17:55:44.480Z,97660.50
2023-02-11T17:58:11.024Z,97676.97
2023-02-11T18:00:37.474Z,97683.03
2023-02-11T18:03:04.387Z,97677.75
2023-02-11T18:05:35.784Z,97688.78
2023-02-11T18:08:04.285Z,97693.00
2023-02-11T18:10:31.688Z,97699.78
2023-02-11T18:12:58.122Z,97681.56
2023-02-11T18:15:24.610Z,97682.78
2023-02-11T18:17:51.202Z,97698.41
2023-02-11T18:20:17.871Z,97708.41
2023-02-11T18:22:44.647Z,97714.22
2023-02-11T18:25:14.968Z,97701.13
2023-02-11T18:27:41.512Z,97687.78
2023-02-11T18:30:13.997Z,97687.88
2023-02-11T18:32:40.488Z,97678.00
2023-02-11T18:35:14.780Z,97684.22
2023-02-11T18:37:42.395Z,97701.16
2023-02-11T18:40:10.433Z,97690.41
2023-02-11T18:42:36.989Z,97689.97
2023-02-11T18:45:05.158Z,97665.38
2023-02-11T18:47:31.545Z,97680.31
2023-02-11T18:49:57.964Z,97695.63
2023-02-11T18:52:24.387Z,97697.41
2023-02-11T18:54:52.241Z,97702.53
2023-02-11T18:57:18.640Z,97688.38
2023-02-11T18:59:45.309Z,97672.03
2023-02-11T19:02:11.995Z,97677.41
2023-02-11T19:04:38.516Z,97685.13
2023-02-11T19:07:05.071Z,97690.97
2023-02-11T19:09:31.696Z,97686.75
2023-02-11T19:11:59.794Z,97684.75
2023-02-11T19:14:31.623Z,97700.53
2023-02-11T19:17:00.286Z,97681.38
2023-02-11T19:19:31.576Z,97707.00
2023-02-11T19:21:59.773Z,97678.75
2023-02-11T19:24:28.072Z,97682.44
2023-02-11T19:26:58.411Z,97679.19
2023-02-11T19:29:25.428Z,97696.78
2023-02-11T19:31:53.556Z,97700.53
2023-02-11T19:34:21.265Z,97715.25
2023-02-11T19:36:49.321Z,97704.84
2023-02-11T19:39:16.385Z,97691.72
2023-02-11T19:41:42.940Z,97689.75
2023-02-11T19:44:09.501Z,97693.63
2023-02-11T19:46:38.027Z,97703.50
2023-02-11T19:49:05.067Z,97688.94
2023-02-11T19:51:33.523Z,97678.53
2023-02-11T19:54:00.664Z,97695.84
2023-02-11T19:56:31.023Z,97692.63
2023-02-11T19:58:57.539Z,97662.56
2023-02-11T20:01:25.664Z,97686.28
2023-02-11T20:03:53.846Z,97697.47
2023-02-11T20:06:23.865Z,97697.84
2023-02-11T20:08:58.235Z,97686.91
2023-02-11T20:11:26.832Z,97697.84
2023-02-11T20:13:53.533Z,97703.03
2023-02-11T20:16:23.116Z,97705.09
2023-02-11T20:18:50.865Z,97680.31
2023-02-11T20:21:20.233Z,97677.91
2023-02-11T20:23:47.578Z,97688.75
2023-02-11T20:26:16.764Z,97703.28
2023-02-11T20:28:43.400Z,97718.19
2023-02-11T20:31:11.080Z,97697.38
2023-02-11T20:33:38.733Z,97728.69
2023-02-11T20:36:08.440Z,97735.31
2023-02-11T20:38:35.758Z,97710.50
2023-02-11T20:41:10.357Z,97719.19
2023-02-11T20:43:38.107Z,97726.88
2023-02-11T20:46:06.051Z,97717.59
2023-02-11T20:48:33.204Z,97716.16
2023-02-11T20:51:09.112Z,97745.41
2023-02-11T20:53:40.419Z,97721.22
2023-02-11T20:56:09.722Z,97727.44
2023-02-11T20:58:36.495Z,97743.16
2023-02-11T21:01:14.124Z,97749.97
2023-02-11T21:03:43.696Z,97714.19
2023-02-11T21:06:11.334Z,97740.47
2023-02-11T21:08:37.860Z,97728.81
2023-02-11T21:11:08.430Z,97720.75
2023-02-11T21:13:36.213Z,97749.56
2023-02-11T21:16:03.116Z,97743.34
2023-02-11T21:18:29.637Z,97731.41
2023-02-11T21:20:56.784Z,97748.56
2023-02-11T21:23:23.799Z,97727.91
2023-02-11T21:25:51.013Z,97748.00
2023-02-11T21:28:17.489Z,97750.63
2023-02-11T21:30:44.304Z,97738.31
2023-02-11T21:33:10.768Z,97738.91
2023-02-11T21:35:38.018Z,97743.59
2023-02-11T21:38:04.795Z,97750.41
2023-02-11T21:40:31.293Z,97729.25
2023-02-11T21:42:58.275Z,97750.16
2023-02-11T21:45:25.335Z,97749.78
2023-02-11T21:47:52.338Z,97733.72
2023-02-11T21:50:19.081Z,97718.56
2023-02-11T21:52:46.043Z,97738.06
2023-02-11T21:55:12.741Z,97711.25
2023-02-11T21:57:39.249Z,97704.56
2023-02-11T22:00:07.627Z,97722.94
2023-02-11T22:02:37.121Z,97704.56
2023-02-11T22:05:03.800Z,97702.50
2023-02-11T22:07:30.332Z,97722.41
2023-02-11T22:09:56.789Z,97704.47
2023-02-11T22:12:23.237Z,97708.75
2023-02-11T22:14:49.743Z,97720.81
2023-02-11T22:17:16.261Z,97702.09
2023-02-11T22:19:42.783Z,97709.75
2023-02-11T22:22:09.399Z,97701.69
2023-02-11T22:24:36.072Z,97727.97
2023-02-11T22:27:02.989Z,97722.69
2023-02-11T22:29:29.424Z,97722.69
2023-02-11T22:31:55.856Z,97704.38
2023-02-11T22:34:22.326Z,97721.44
2023-02-11T22:36:48.762Z,97728.91
2023-02-11T22:39:16.613Z,97738.94
2023-02-11T22:41:44.609Z,97740.94
2023-02-11T22:44:11.604Z,97751.88
2023-02-11T22:46:38.992Z,97754.28
2023-02-11T22:49:05.866Z,97746.59
2023-02-11T22:51:32.371Z,97745.22
2023-02-11T22:54:04.260Z,97756.28
2023-02-11T22:56:32.723Z,97746.78
2023-02-11T22:59:01.764Z,97754.47
2023-02-11T23:01:29.725Z,97747.78
2023-02-11T23:03:56.926Z,97750.00
2023-02-11T23:06:23.344Z,97765.09
2023-02-11T23:08:51.482Z,97774.53
2023-02-11T23:11:20.633Z,97760.97
2023-02-11T23:13:48.356Z,97770.13
2023-02-11T23:16:18.261Z,97777.31
2023-02-11T23:18:46.177Z,97775.53
2023-02-11T23:21:18.892Z,97785.34
2023-02-11T23:23:45.687Z,97754.00
2023-02-11T23:26:15.237Z,97757.94
2023-02-11T23:28:42.148Z,97762.72
2023-02-11T23:31:22.237Z,97762.53
2023-02-11T23:33:49.115Z,97748.00
2023-02-11T23:36:16.560Z,97758.50
2023-02-11T23:38:43.371Z,97789.72
2023-02-11T23:41:10.201Z,97763.06
2023-02-11T23:43:36.962Z,97773.31
2023-02-11T23:46:04.141Z,97748.72
2023-02-11T23:48:30.631Z,97773.16
2023-02-11T23:50:57.112Z,97782.75
2023-02-11T23:53:38.237Z,97788.97
2023-02-11T23:56:10.055Z,97780.09
2023-02-11T23:58:36.642Z,97765.38
